Time;durP1;ratioP1;P1;durP2;ratioP2;P2;SDS_P1;SDS_P2;PMS_P1;PMS_P2;Temp;Humidity;BMP_temperature;BMP_pressure;BME280_temperature;BME280_humidity;BME280_pressure;Samples;Min_cycle;Max_cycle;Signal;HPM_P1;HPM_P2
2023/08/04 18:18:09;;;;;;;0.47;0.47;;;;;;;;;;5131636;27;20379;-76
2023/08/04 18:20:35;;;;;;;0.55;0.55;;;;;;;;;;5111339;28;20035;-75
2023/08/04 18:23:01;;;;;;;0.40;0.40;;;;;;;;;;5109829;28;20024;-76
2023/08/04 18:25:26;;;;;;;3.85;2.00;;;;;;;;;;5111313;28;20426;-76
2023/08/04 18:27:52;;;;;;;7.53;3.22;;;;;;;;;;5111188;28;20115;-76
2023/08/04 18:30:19;;;;;;;6.72;3.08;;;;;;;;;;5111180;28;20032;-78
2023/08/04 18:32:44;;;;;;;5.45;3.17;;;;;;;;;;5110723;28;20020;-77
2023/08/04 18:35:11;;;;;;;5.60;3.05;;;;;;;;;;5110792;28;20054;-76
2023/08/04 18:37:36;;;;;;;4.70;3.10;;;;;;;;;;5110976;28;20028;-77
2023/08/04 18:40:05;;;;;;;7.03;3.10;;;;;;;;;;5110812;28;20028;-76
2023/08/04 18:42:35;;;;;;;6.35;3.10;;;;;;;;;;5110902;28;20028;-75
2023/08/04 18:45:01;;;;;;;4.97;3.00;;;;;;;;;;5110793;28;20404;-76
2023/08/04 18:47:26;;;;;;;5.43;3.05;;;;;;;;;;5110803;28;20036;-76
2023/08/04 18:49:51;;;;;;;6.13;3.10;;;;;;;;;;5110612;28;20047;-77
2023/08/04 18:52:17;;;;;;;5.63;3.30;;;;;;;;;;5110550;28;20019;-80
2023/08/04 18:54:42;;;;;;;7.40;3.42;;;;;;;;;;5110664;28;20020;-78
2023/08/04 18:57:07;;;;;;;6.10;3.00;;;;;;;;;;5110199;28;20023;-75
2023/08/04 18:59:33;;;;;;;5.03;3.13;;;;;;;;;;5110361;28;20020;-75
2023/08/04 19:01:58;;;;;;;6.88;3.20;;;;;;;;;;5109133;28;20027;-75
2023/08/04 19:04:23;;;;;;;5.00;3.05;;;;;;;;;;5110360;28;20024;-78
2023/08/04 19:06:49;;;;;;;6.03;3.20;;;;;;;;;;5110147;28;20034;-77
2023/08/04 19:09:14;;;;;;;5.43;3.60;;;;;;;;;;5110326;28;20023;-76
2023/08/04 19:11:39;;;;;;;5.75;3.40;;;;;;;;;;5110098;28;20531;-75
2023/08/04 19:14:05;;;;;;;5.68;3.10;;;;;;;;;;5110133;28;20020;-80
2023/08/04 19:16:30;;;;;;;6.70;3.60;;;;;;;;;;5109741;28;20039;-76
2023/08/04 19:18:55;;;;;;;5.65;3.45;;;;;;;;;;5110104;28;20016;-77
2023/08/04 19:21:21;;;;;;;5.75;3.50;;;;;;;;;;5110038;28;20153;-79
2023/08/04 19:23:48;;;;;;;6.97;3.50;;;;;;;;;;5110016;28;20077;-79
2023/08/04 19:26:14;;;;;;;5.40;3.35;;;;;;;;;;5109693;28;20031;-78
2023/08/04 19:28:39;;;;;;;6.63;3.78;;;;;;;;;;5103980;28;20032;-82
2023/08/04 19:31:05;;;;;;;7.75;3.63;;;;;;;;;;5096153;28;20423;-78
2023/08/04 19:33:30;;;;;;;5.22;3.45;;;;;;;;;;5101171;28;20020;-76
2023/08/04 19:35:58;;;;;;;6.70;3.70;;;;;;;;;;5097584;28;20077;-80
2023/08/04 19:38:24;;;;;;;6.53;3.53;;;;;;;;;;5096184;28;20046;-80
2023/08/04 19:40:54;;;;;;;6.07;3.70;;;;;;;;;;5078250;28;20111;-77
2023/08/04 19:43:20;;;;;;;6.15;3.58;;;;;;;;;;5096183;28;20500;-77
2023/08/04 19:45:45;;;;;;;7.63;3.63;;;;;;;;;;5095904;28;20032;-83
2023/08/04 19:48:10;;;;;;;10.10;3.75;;;;;;;;;;5096104;28;20016;-76
2023/08/04 19:50:36;;;;;;;7.35;3.70;;;;;;;;;;5095747;28;20027;-85
2023/08/04 19:53:02;;;;;;;6.60;4.00;;;;;;;;;;5095695;28;20024;-78
2023/08/04 19:55:28;;;;;;;6.53;3.80;;;;;;;;;;5095825;28;20047;-77
2023/08/04 19:57:53;;;;;;;6.20;3.75;;;;;;;;;;5095810;28;20020;-82
2023/08/04 20:00:18;;;;;;;5.80;3.97;;;;;;;;;;5095780;28;20369;-77
2023/08/04 20:02:44;;;;;;;7.57;3.95;;;;;;;;;;5095645;28;20050;-86
2023/08/04 20:05:09;;;;;;;7.28;3.85;;;;;;;;;;5095547;28;20461;-78
2023/08/04 20:07:34;;;;;;;6.75;3.60;;;;;;;;;;5095388;28;20079;-79
2023/08/04 20:10:00;;;;;;;7.43;3.95;;;;;;;;;;5095553;28;20028;-76
2023/08/04 20:12:25;;;;;;;6.25;3.80;;;;;;;;;;5095775;28;20028;-88
2023/08/04 20:14:51;;;;;;;7.15;4.05;;;;;;;;;;5095420;28;20020;-86
2023/08/04 20:17:17;;;;;;;6.28;3.63;;;;;;;;;;5095540;28;20517;-81
2023/08/04 20:19:44;;;;;;;8.93;4.03;;;;;;;;;;5095567;28;20029;-88
2023/08/04 20:22:09;;;;;;;7.95;3.60;;;;;;;;;;5095084;28;20078;-80
2023/08/04 20:24:34;;;;;;;6.68;3.58;;;;;;;;;;5095063;28;20028;-80
2023/08/04 20:27:00;;;;;;;8.10;3.70;;;;;;;;;;5077289;28;20024;-79
2023/08/04 20:29:25;;;;;;;5.93;3.63;;;;;;;;;;5095202;28;20020;-83
2023/08/04 20:31:50;;;;;;;4.70;3.60;;;;;;;;;;5077773;28;20024;-81
2023/08/04 20:34:16;;;;;;;7.03;3.80;;;;;;;;;;5095178;28;20396;-80
2023/08/04 20:36:41;;;;;;;6.57;3.97;;;;;;;;;;5094907;28;20360;-83
2023/08/04 20:39:07;;;;;;;7.82;3.58;;;;;;;;;;5076620;28;20035;-81
2023/08/04 20:41:32;;;;;;;7.65;3.78;;;;;;;;;;5094116;28;20047;-80
2023/08/04 20:43:57;;;;;;;5.93;3.63;;;;;;;;;;5094767;28;20024;-80
2023/08/04 20:46:23;;;;;;;7.53;3.83;;;;;;;;;;5094802;28;20046;-79
2023/08/04 20:48:48;;;;;;;6.68;3.58;;;;;;;;;;5094850;28;20035;-80
2023/08/04 20:51:14;;;;;;;7.13;4.00;;;;;;;;;;5094806;28;20394;-81
2023/08/04 20:53:39;;;;;;;7.35;3.88;;;;;;;;;;5094619;28;20402;-79
2023/08/04 20:56:05;;;;;;;6.60;3.83;;;;;;;;;;5094445;28;20035;-81
2023/08/04 20:58:31;;;;;;;8.00;3.92;;;;;;;;;;5094454;28;20055;-80
2023/08/04 21:01:04;;;;;;;7.75;3.85;;;;;;;;;;5094688;28;20119;-81
2023/08/04 21:03:29;;;;;;;7.07;4.07;;;;;;;;;;5094600;28;20103;-81
2023/08/04 21:05:54;;;;;;;6.63;3.80;;;;;;;;;;5076331;28;20111;-80
2023/08/04 21:08:21;;;;;;;8.50;4.20;;;;;;;;;;5094366;28;20036;-78
2023/08/04 21:10:47;;;;;;;7.10;4.20;;;;;;;;;;5094401;28;20027;-78
2023/08/04 21:13:12;;;;;;;7.13;4.18;;;;;;;;;;5075844;28;20036;-78
2023/08/04 21:15:38;;;;;;;9.13;4.00;;;;;;;;;;5094330;28;20475;-77
2023/08/04 21:18:03;;;;;;;7.53;4.32;;;;;;;;;;5094523;28;20044;-77
2023/08/04 21:20:29;;;;;;;7.05;4.53;;;;;;;;;;5075966;28;20027;-77
2023/08/04 21:22:54;;;;;;;9.07;4.40;;;;;;;;;;5095878;28;20027;-79
2023/08/04 21:25:20;;;;;;;6.68;4.35;;;;;;;;;;5095687;28;20028;-76
2023/08/04 21:27:45;;;;;;;8.25;4.40;;;;;;;;;;5078340;28;20027;-81
2023/08/04 21:30:11;;;;;;;7.78;4.18;;;;;;;;;;5095894;28;20031;-76
2023/08/04 21:32:36;;;;;;;9.75;4.45;;;;;;;;;;5103799;28;20028;-78
2023/08/04 21:35:02;;;;;;;8.98;4.50;;;;;;;;;;5103349;28;20089;-78
2023/08/04 21:37:28;;;;;;;7.50;4.43;;;;;;;;;;5102975;28;20023;-79
2023/08/04 21:39:54;;;;;;;7.45;4.25;;;;;;;;;;5098798;28;20027;-87
2023/08/04 21:42:20;;;;;;;7.30;4.13;;;;;;;;;;5093794;28;20435;-81
2023/08/04 21:44:45;;;;;;;8.23;4.80;;;;;;;;;;5094630;28;20028;-85
2023/08/04 21:47:11;;;;;;;7.85;4.60;;;;;;;;;;5096263;28;20093;-84
2023/08/04 21:49:37;;;;;;;7.90;4.30;;;;;;;;;;5098131;28;20046;-86
2023/08/04 21:52:03;;;;;;;8.35;4.15;;;;;;;;;;5098605;28;20080;-80
2023/08/04 21:54:29;;;;;;;6.55;4.38;;;;;;;;;;5097109;28;20027;-85
2023/08/04 21:56:54;;;;;;;17.70;4.47;;;;;;;;;;5098800;28;20093;-83
2023/08/04 21:59:20;;;;;;;6.93;4.18;;;;;;;;;;5103829;28;20234;-85
2023/08/04 22:01:45;;;;;;;7.07;4.30;;;;;;;;;;5104242;28;20106;-84
2023/08/04 22:04:10;;;;;;;8.52;4.32;;;;;;;;;;5102808;28;20346;-79
2023/08/04 22:06:36;;;;;;;5.75;4.20;;;;;;;;;;5080767;28;20537;-84
2023/08/04 22:09:02;;;;;;;6.78;4.15;;;;;;;;;;5102851;28;20362;-83
2023/08/04 22:11:27;;;;;;;6.40;4.45;;;;;;;;;;5101993;28;20016;-78
2023/08/04 22:13:53;;;;;;;7.10;4.10;;;;;;;;;;5102519;28;20212;-82
2023/08/04 22:16:18;;;;;;;7.55;4.20;;;;;;;;;;5103938;28;20048;-84
2023/08/04 22:18:43;;;;;;;6.68;4.25;;;;;;;;;;5095542;28;20420;-81
2023/08/04 22:21:09;;;;;;;8.43;4.30;;;;;;;;;;5095016;28;20082;-86
2023/08/04 22:23:35;;;;;;;7.03;4.35;;;;;;;;;;5093213;28;20024;-80
2023/08/04 22:26:03;;;;;;;6.85;3.90;;;;;;;;;;5092961;28;20464;-85
2023/08/04 22:28:29;;;;;;;6.30;3.97;;;;;;;;;;5095524;28;20035;-81
2023/08/04 22:30:55;;;;;;;7.63;4.15;;;;;;;;;;5102430;28;20023;-80
2023/08/04 22:33:22;;;;;;;10.20;4.35;;;;;;;;;;5098024;28;20032;-81
2023/08/04 22:35:47;;;;;;;7.78;4.25;;;;;;;;;;5094372;28;20026;-84
2023/08/04 22:38:13;;;;;;;5.80;4.00;;;;;;;;;;5096494;28;20059;-82
2023/08/04 22:40:38;;;;;;;6.45;4.07;;;;;;;;;;5095280;28;20028;-88
2023/08/04 22:43:04;;;;;;;7.05;4.35;;;;;;;;;;5093087;28;20028;-80
2023/08/04 22:45:29;;;;;;;10.27;4.53;;;;;;;;;;5095607;28;20023;-85
2023/08/04 22:47:55;;;;;;;7.90;4.25;;;;;;;;;;5081611;28;20039;-75
2023/08/04 22:50:20;;;;;;;7.80;4.45;;;;;;;;;;5103812;28;20207;-76
2023/08/04 22:52:46;;;;;;;8.05;4.38;;;;;;;;;;5102939;28;20028;-76
2023/08/04 22:55:11;;;;;;;6.95;4.28;;;;;;;;;;5102828;28;20031;-76
2023/08/04 22:57:37;;;;;;;7.05;4.38;;;;;;;;;;5102445;28;20047;-77
2023/08/04 23:00:03;;;;;;;7.57;4.30;;;;;;;;;;5102652;28;20300;-84
2023/08/04 23:02:29;;;;;;;8.63;4.20;;;;;;;;;;5102487;28;20024;-77
2023/08/04 23:04:54;;;;;;;7.63;4.53;;;;;;;;;;5096533;28;20031;-75
2023/08/04 23:07:19;;;;;;;8.52;4.38;;;;;;;;;;5096764;28;20059;-81
2023/08/04 23:09:45;;;;;;;7.95;4.55;;;;;;;;;;5096837;28;20028;-76
2023/08/04 23:12:11;;;;;;;5.78;4.15;;;;;;;;;;5096694;28;20012;-79
2023/08/04 23:14:36;;;;;;;6.68;4.10;;;;;;;;;;5096602;28;20035;-76
2023/08/04 23:17:02;;;;;;;10.40;4.60;;;;;;;;;;5096353;28;20082;-77
2023/08/04 23:19:27;;;;;;;7.38;4.25;;;;;;;;;;5096412;28;20048;-75
2023/08/04 23:21:53;;;;;;;6.75;4.10;;;;;;;;;;5097836;28;20020;-77
2023/08/04 23:24:18;;;;;;;7.53;4.07;;;;;;;;;;5107144;28;20024;-79
2023/08/04 23:26:43;;;;;;;7.88;4.05;;;;;;;;;;5106956;28;20035;-83
2023/08/04 23:29:09;;;;;;;5.35;3.67;;;;;;;;;;5088883;28;20032;-76
2023/08/04 23:31:34;;;;;;;5.65;3.70;;;;;;;;;;5107214;28;20138;-84
2023/08/04 23:33:59;;;;;;;5.75;3.33;;;;;;;;;;5106858;28;20039;-84
2023/08/04 23:36:25;;;;;;;5.80;3.60;;;;;;;;;;5106830;28;20050;-78
2023/08/04 23:38:50;;;;;;;6.50;3.38;;;;;;;;;;5105766;28;20208;-76
2023/08/04 23:41:16;;;;;;;6.38;3.40;;;;;;;;;;5106792;28;20047;-77
2023/08/04 23:43:41;;;;;;;5.97;3.30;;;;;;;;;;5106062;28;20024;-76
2023/08/04 23:46:06;;;;;;;7.63;3.67;;;;;;;;;;5105759;28;20024;-78
2023/08/04 23:48:32;;;;;;;5.38;3.40;;;;;;;;;;5105859;28;20024;-78
2023/08/04 23:50:57;;;;;;;7.50;3.40;;;;;;;;;;5105658;28;20024;-80
2023/08/04 23:53:23;;;;;;;6.05;3.40;;;;;;;;;;5104725;28;20020;-76
2023/08/04 23:55:48;;;;;;;5.70;3.60;;;;;;;;;;5106617;28;20040;-76
2023/08/04 23:58:14;;;;;;;4.60;3.33;;;;;;;;;;5106413;28;20342;-76
